Time;durP1;ratioP1;P1;durP2;ratioP2;P2;SDS_P1;SDS_P2;PMS_P1;PMS_P2;Temp;Humidity;BMP_temperature;BMP_pressure;BME280_temperature;BME280_humidity;BME280_pressure;Samples;Min_cycle;Max_cycle;Signal;HPM_P1;HPM_P2
2022/03/07 00:02:22;;;;;;;10.07;4.50;;;8.30;99.90;;;;;;5066313;28;20205;-66
2022/03/07 00:04:48;;;;;;;12.53;4.67;;;8.30;99.90;;;;;;5066453;28;20234;-66
2022/03/07 00:07:14;;;;;;;7.33;3.90;;;8.40;99.90;;;;;;5062194;28;20218;-65
2022/03/07 00:09:41;;;;;;;11.70;4.40;;;8.40;99.90;;;;;;5066302;28;20677;-66
2022/03/07 00:12:07;;;;;;;9.83;4.37;;;8.40;99.90;;;;;;5064819;28;20202;-65
2022/03/07 00:14:34;;;;;;;10.07;4.30;;;8.40;99.90;;;;;;5067718;28;20191;-65
2022/03/07 00:17:00;;;;;;;10.47;4.87;;;8.40;99.90;;;;;;5067098;28;20182;-65
2022/03/07 00:19:29;;;;;;;8.83;3.70;;;8.50;99.90;;;;;;5068995;28;20191;-66
2022/03/07 00:21:55;;;;;;;10.73;4.43;;;8.40;99.90;;;;;;5066410;28;20222;-65
2022/03/07 00:24:21;;;;;;;13.03;5.13;;;8.40;99.90;;;;;;5068291;28;20183;-66
2022/03/07 00:26:48;;;;;;;13.07;4.97;;;8.40;99.90;;;;;;5081190;28;20197;-65
2022/03/07 00:29:14;;;;;;;12.50;4.67;;;8.40;99.90;;;;;;5066928;28;20219;-66
2022/03/07 00:31:40;;;;;;;16.20;4.33;;;8.40;99.90;;;;;;5066434;28;20667;-66
2022/03/07 00:34:07;;;;;;;8.17;4.30;;;8.40;99.90;;;;;;5068789;28;20260;-65
2022/03/07 00:36:33;;;;;;;13.30;4.47;;;8.40;99.90;;;;;;5083082;28;20895;-65
2022/03/07 00:38:59;;;;;;;13.33;5.50;;;8.40;99.90;;;;;;5084306;28;20654;-66
2022/03/07 00:41:25;;;;;;;11.30;4.23;;;8.30;99.90;;;;;;5069186;28;20194;-65
2022/03/07 00:43:52;;;;;;;7.23;3.80;;;8.30;99.90;;;;;;5067584;28;20994;-65
2022/03/07 00:46:18;;;;;;;9.57;4.13;;;8.30;99.90;;;;;;5066487;28;20614;-66
2022/03/07 00:48:45;;;;;;;8.70;4.40;;;8.30;99.90;;;;;;5066755;28;20239;-65
2022/03/07 00:51:11;;;;;;;10.50;4.70;;;8.30;99.90;;;;;;5067838;28;20647;-65
2022/03/07 00:53:37;;;;;;;12.97;4.40;;;8.30;99.90;;;;;;5049760;28;20187;-65
2022/03/07 00:56:04;;;;;;;13.50;4.60;;;8.30;99.90;;;;;;5071501;28;20179;-65
2022/03/07 00:58:30;;;;;;;14.07;4.57;;;8.30;99.90;;;;;;5050217;28;20179;-65
2022/03/07 01:00:56;;;;;;;11.50;4.60;;;8.30;99.90;;;;;;5068506;28;20252;-66
2022/03/07 01:03:23;;;;;;;12.83;4.67;;;8.30;99.90;;;;;;5068504;28;20206;-66
2022/03/07 01:05:49;;;;;;;12.90;4.37;;;8.30;99.90;;;;;;5067857;28;20233;-66
2022/03/07 01:08:16;;;;;;;10.37;4.17;;;8.30;99.90;;;;;;5079047;28;20214;-65
2022/03/07 01:10:43;;;;;;;9.27;4.00;;;8.30;99.90;;;;;;5063266;28;20233;-65
2022/03/07 01:13:09;;;;;;;10.27;4.47;;;8.40;99.90;;;;;;5065802;28;20214;-66
2022/03/07 01:15:36;;;;;;;10.63;4.93;;;8.40;99.90;;;;;;5067841;28;20187;-65
2022/03/07 01:18:04;;;;;;;12.40;5.07;;;8.40;99.90;;;;;;5067369;28;20199;-66
2022/03/07 01:20:31;;;;;;;10.63;4.23;;;8.40;99.90;;;;;;5066805;28;20888;-65
2022/03/07 01:22:57;;;;;;;11.07;4.47;;;8.40;99.90;;;;;;5066157;28;20194;-65
2022/03/07 01:25:24;;;;;;;10.23;4.27;;;8.40;99.90;;;;;;5070792;28;20207;-65
2022/03/07 01:27:50;;;;;;;10.43;4.70;;;8.40;99.90;;;;;;5076463;28;20293;-64
2022/03/07 01:30:17;;;;;;;12.57;4.53;;;8.30;99.90;;;;;;5068772;28;20851;-65
2022/03/07 01:32:52;;;;;;;10.20;4.50;;;8.40;99.90;;;;;;5069748;28;20274;-67
2022/03/07 01:35:19;;;;;;;12.20;4.20;;;8.40;99.90;;;;;;5071002;28;20611;-65
2022/03/07 01:37:47;;;;;;;11.70;4.83;;;8.30;99.90;;;;;;5085512;28;20207;-65
2022/03/07 01:40:14;;;;;;;11.77;4.63;;;8.30;99.90;;;;;;5067272;28;20220;-66
2022/03/07 01:42:40;;;;;;;7.57;4.37;;;8.30;99.90;;;;;;5066690;28;20198;-65
2022/03/07 01:45:12;;;;;;;11.40;4.20;;;8.30;99.90;;;;;;5070412;28;20202;-66
2022/03/07 01:47:40;;;;;;;12.23;4.00;;;8.20;99.90;;;;;;5068367;28;20252;-65
2022/03/07 01:50:12;;;;;;;8.93;4.23;;;8.20;99.90;;;;;;5053328;28;20609;-66
2022/03/07 01:52:41;;;;;;;13.07;4.00;;;8.20;99.90;;;;;;5056112;28;20192;-65
2022/03/07 01:55:11;;;;;;;8.93;4.20;;;8.10;99.90;;;;;;5083705;28;20193;-66
2022/03/07 01:57:44;;;;;;;12.77;4.60;;;8.10;99.90;;;;;;5057776;28;20317;-66
2022/03/07 02:00:18;;;;;;;10.57;4.10;;;8.10;99.90;;;;;;5090084;28;20186;-65
2022/03/07 02:02:45;;;;;;;9.53;4.23;;;8.10;99.90;;;;;;5091104;28;20194;-66
2022/03/07 02:05:13;;;;;;;8.60;4.77;;;8.10;99.90;;;;;;5067742;28;20195;-66
2022/03/07 02:07:40;;;;;;;13.57;4.90;;;8.10;99.90;;;;;;5053005;28;20191;-65
2022/03/07 02:10:09;;;;;;;6.33;3.90;;;8.00;99.90;;;;;;5070815;28;20673;-65
2022/03/07 02:12:36;;;;;;;8.00;4.07;;;8.10;99.90;;;;;;5075726;28;20501;-66
2022/03/07 02:15:03;;;;;;;8.17;4.23;;;8.00;99.90;;;;;;5068936;28;20241;-66
2022/03/07 02:17:29;;;;;;;9.40;4.10;;;8.00;99.90;;;;;;5070495;28;20219;-65
2022/03/07 02:19:56;;;;;;;10.50;4.40;;;8.00;99.90;;;;;;5078645;28;20622;-65
2022/03/07 02:22:23;;;;;;;8.63;4.47;;;8.10;99.90;;;;;;5074615;28;20190;-65
2022/03/07 02:24:50;;;;;;;11.17;5.13;;;8.10;99.90;;;;;;5069395;28;20249;-66
2022/03/07 02:27:18;;;;;;;8.13;4.73;;;8.00;99.90;;;;;;5055429;28;20194;-66
2022/03/07 02:29:49;;;;;;;11.97;4.53;;;8.00;99.90;;;;;;5067969;28;20242;-65
2022/03/07 02:32:15;;;;;;;7.23;3.87;;;8.00;99.90;;;;;;5069468;28;20270;-65
2022/03/07 02:34:42;;;;;;;10.30;4.43;;;8.00;99.90;;;;;;5068189;28;20248;-65
2022/03/07 02:37:08;;;;;;;6.77;4.37;;;8.00;99.90;;;;;;5070168;28;20638;-65
2022/03/07 02:39:34;;;;;;;11.53;4.80;;;7.90;99.90;;;;;;5069363;28;20934;-65
2022/03/07 02:42:01;;;;;;;9.30;4.87;;;7.90;99.90;;;;;;5069383;28;20193;-65
2022/03/07 02:44:27;;;;;;;11.37;4.57;;;7.90;99.90;;;;;;5069574;28;20219;-65
2022/03/07 02:46:53;;;;;;;10.50;4.80;;;7.90;99.90;;;;;;5067383;28;20229;-65
2022/03/07 02:49:19;;;;;;;7.40;4.83;;;7.80;99.90;;;;;;5068222;28;20207;-65
2022/03/07 02:51:46;;;;;;;9.47;4.00;;;7.80;99.90;;;;;;5068555;28;20261;-65
2022/03/07 02:54:12;;;;;;;13.27;4.43;;;7.80;99.90;;;;;;5069210;28;20191;-65
2022/03/07 02:56:38;;;;;;;10.80;4.87;;;7.80;99.90;;;;;;5067618;28;20477;-65
2022/03/07 02:59:05;;;;;;;9.17;4.80;;;7.70;99.90;;;;;;5067733;28;20281;-65
2022/03/07 03:01:31;;;;;;;16.83;5.13;;;7.70;99.90;;;;;;5068183;28;20241;-64
2022/03/07 03:03:58;;;;;;;12.43;4.87;;;7.70;99.90;;;;;;5047600;28;20191;-66
2022/03/07 03:06:24;;;;;;;10.77;4.70;;;7.70;99.90;;;;;;5063292;28;20191;-65
2022/03/07 03:08:50;;;;;;;13.90;4.57;;;7.70;99.90;;;;;;5071101;28;20217;-65
2022/03/07 03:11:17;;;;;;;10.97;4.90;;;7.70;99.90;;;;;;5079073;28;20188;-65
2022/03/07 03:13:43;;;;;;;18.63;4.77;;;7.70;99.90;;;;;;5065942;28;20186;-65
2022/03/07 03:16:10;;;;;;;14.67;4.80;;;7.70;99.90;;;;;;5067168;28;20260;-65
2022/03/07 03:18:36;;;;;;;9.27;4.97;;;7.70;99.90;;;;;;5069526;28;20268;-65
2022/03/07 03:21:02;;;;;;;9.67;4.13;;;7.70;99.90;;;;;;5069640;28;20282;-65
2022/03/07 03:23:29;;;;;;;13.83;4.40;;;7.70;99.90;;;;;;5069663;28;20183;-65
2022/03/07 03:25:55;;;;;;;10.53;4.00;;;7.70;99.90;;;;;;5066458;28;20220;-65
2022/03/07 03:28:24;;;;;;;11.40;4.60;;;7.80;99.90;;;;;;5068656;28;20201;-66
2022/03/07 03:30:54;;;;;;;13.97;4.43;;;7.80;99.90;;;;;;5050934;28;20218;-66
2022/03/07 03:33:21;;;;;;;13.73;4.30;;;7.90;99.90;;;;;;5068299;28;20191;-66
2022/03/07 03:35:48;;;;;;;11.67;4.00;;;7.90;99.90;;;;;;5067014;28;20197;-65
2022/03/07 03:38:14;;;;;;;11.10;4.23;;;8.00;99.90;;;;;;5066913;28;20647;-66
2022/03/07 03:40:41;;;;;;;13.57;3.93;;;8.00;99.90;;;;;;5073644;28;20273;-66
2022/03/07 03:43:07;;;;;;;14.23;4.70;;;8.00;99.90;;;;;;5081194;28;20194;-65
2022/03/07 03:45:34;;;;;;;15.87;4.60;;;8.00;99.90;;;;;;5083841;28;20209;-65
2022/03/07 03:48:00;;;;;;;13.13;4.03;;;8.00;99.90;;;;;;5067715;28;20191;-65
2022/03/07 03:50:27;;;;;;;11.67;4.03;;;8.00;99.90;;;;;;5066534;28;20214;-66
2022/03/07 03:52:53;;;;;;;8.43;3.93;;;8.00;99.90;;;;;;5067741;28;20201;-65
2022/03/07 03:55:21;;;;;;;9.70;4.27;;;8.00;99.90;;;;;;5050971;28;20697;-65
2022/03/07 03:57:48;;;;;;;11.87;4.47;;;8.00;99.90;;;;;;5084947;28;20224;-65
2022/03/07 04:00:18;;;;;;;13.73;4.80;;;8.00;99.90;;;;;;5067694;28;20195;-65
2022/03/07 04:02:44;;;;;;;11.60;4.77;;;8.00;99.90;;;;;;5065561;28;20538;-65
2022/03/07 04:05:16;;;;;;;21.73;7.00;;;8.00;99.90;;;;;;5063755;28;20202;-65
2022/03/07 04:07:43;;;;;;;13.87;6.30;;;8.00;99.90;;;;;;5068826;28;20241;-65
2022/03/07 04:10:15;;;;;;;13.60;6.13;;;8.00;99.90;;;;;;5068071;28;20222;-65
2022/03/07 04:12:43;;;;;;;12.73;6.27;;;8.10;99.90;;;;;;5061065;28;20280;-65
2022/03/07 04:15:11;;;;;;;17.87;5.57;;;8.10;99.90;;;;;;5059423;28;20194;-66
2022/03/07 04:17:42;;;;;;;14.43;5.20;;;8.10;99.90;;;;;;5049358;28;20914;-66
2022/03/07 04:20:10;;;;;;;11.93;5.53;;;8.10;99.90;;;;;;5066924;28;20197;-65
2022/03/07 04:22:38;;;;;;;22.37;8.00;;;8.10;99.90;;;;;;5068376;28;20810;-65
2022/03/07 04:25:06;;;;;;;16.57;8.43;;;8.10;99.90;;;;;;5066091;28;20215;-65
2022/03/07 04:27:33;;;;;;;24.27;9.67;;;8.10;99.90;;;;;;5068122;28;20646;-65
2022/03/07 04:29:59;;;;;;;18.93;8.00;;;8.20;99.90;;;;;;5066496;28;20248;-66
2022/03/07 04:32:25;;;;;;;15.77;4.97;;;8.20;99.90;;;;;;5067580;28;20876;-65
2022/03/07 04:34:52;;;;;;;10.10;5.00;;;8.30;99.90;;;;;;5057751;28;20286;-66
2022/03/07 04:37:19;;;;;;;9.37;4.63;;;8.30;99.90;;;;;;5047391;28;20846;-66
2022/03/07 04:39:45;;;;;;;17.03;4.50;;;8.30;99.90;;;;;;5068798;28;20729;-66
2022/03/07 04:42:11;;;;;;;9.60;4.53;;;8.30;99.90;;;;;;5064807;28;20293;-67
2022/03/07 04:44:38;;;;;;;10.70;4.03;;;8.40;99.90;;;;;;5065329;28;20314;-66
2022/03/07 04:47:04;;;;;;;12.27;4.20;;;8.40;99.90;;;;;;5068267;28;20274;-67
2022/03/07 04:49:31;;;;;;;19.67;4.67;;;8.40;99.90;;;;;;5066089;28;20323;-65
2022/03/07 04:51:57;;;;;;;13.30;4.33;;;8.50;99.90;;;;;;5067585;28;20300;-65
2022/03/07 04:54:23;;;;;;;15.30;4.80;;;8.60;99.90;;;;;;5068616;28;20189;-65
2022/03/07 04:56:51;;;;;;;11.60;4.77;;;8.60;99.90;;;;;;5067102;28;20178;-65
2022/03/07 04:59:18;;;;;;;14.70;4.57;;;8.70;99.90;;;;;;5060342;28;20784;-65
2022/03/07 05:01:44;;;;;;;14.83;5.07;;;8.70;99.90;;;;;;5067631;28;20202;-66
2022/03/07 05:04:11;;;;;;;11.23;5.13;;;8.80;99.90;;;;;;5070910;28;20199;-66
2022/03/07 05:06:37;;;;;;;16.93;4.80;;;8.80;99.90;;;;;;5065775;28;20716;-65
2022/03/07 05:09:03;;;;;;;13.70;5.63;;;8.90;99.90;;;;;;5071880;28;20195;-65
2022/03/07 05:11:30;;;;;;;12.23;4.83;;;8.90;99.90;;;;;;5072035;28;20270;-65
2022/03/07 05:13:57;;;;;;;15.60;5.83;;;9.00;99.90;;;;;;5052775;28;20628;-66
2022/03/07 05:16:23;;;;;;;11.53;5.03;;;9.10;99.90;;;;;;5053028;28;20190;-66
2022/03/07 05:18:49;;;;;;;16.47;4.93;;;9.10;99.90;;;;;;5070421;28;20281;-66
2022/03/07 05:21:16;;;;;;;19.17;5.43;;;9.20;99.90;;;;;;5071830;28;20221;-65
2022/03/07 05:23:43;;;;;;;7.67;4.90;;;9.20;99.90;;;;;;5071540;28;20585;-65
2022/03/07 05:26:09;;;;;;;9.57;5.47;;;9.20;99.90;;;;;;5070559;28;20238;-66
2022/03/07 05:28:36;;;;;;;18.30;5.47;;;9.20;99.90;;;;;;5069753;28;20687;-65
2022/03/07 05:31:02;;;;;;;19.00;5.40;;;9.30;99.90;;;;;;5053327;28;20214;-65
2022/03/07 05:33:28;;;;;;;9.10;4.73;;;9.30;99.90;;;;;;5071695;28;20884;-65
2022/03/07 05:35:55;;;;;;;11.53;5.13;;;9.30;99.90;;;;;;5065027;28;20747;-66
2022/03/07 05:38:21;;;;;;;11.00;5.43;;;9.30;99.90;;;;;;5075386;28;20858;-66
2022/03/07 05:40:47;;;;;;;14.13;5.17;;;9.30;99.90;;;;;;5054283;28;20191;-66
2022/03/07 05:43:13;;;;;;;13.77;6.27;;;9.40;99.90;;;;;;5069628;28;20336;-66
2022/03/07 05:45:40;;;;;;;6.60;4.97;;;9.50;99.90;;;;;;5052076;28;20678;-65
2022/03/07 05:48:06;;;;;;;9.90;4.80;;;9.50;99.90;;;;;;5069044;28;20259;-65
2022/03/07 05:50:32;;;;;;;9.33;4.53;;;9.60;99.90;;;;;;5069430;28;20416;-65
2022/03/07 05:53:02;;;;;;;7.30;4.43;;;9.70;99.90;;;;;;5069536;28;20191;-65
2022/03/07 05:55:28;;;;;;;11.53;5.10;;;9.70;99.90;;;;;;5068974;28;20213;-65
2022/03/07 05:57:59;;;;;;;8.90;5.00;;;9.80;99.90;;;;;;5055031;28;20717;-66
2022/03/07 06:00:27;;;;;;;11.23;4.60;;;9.80;99.90;;;;;;5071160;28;20234;-66
2022/03/07 06:02:53;;;;;;;8.27;3.97;;;9.90;99.90;;;;;;5069241;28;20646;-65
2022/03/07 06:05:21;;;;;;;13.03;5.23;;;9.90;99.90;;;;;;5067177;28;20658;-66
2022/03/07 06:07:47;;;;;;;7.67;4.57;;;9.90;99.90;;;;;;5071021;28;20191;-65
2022/03/07 06:10:14;;;;;;;11.90;5.03;;;10.00;99.90;;;;;;5069539;28;20582;-66
2022/03/07 06:12:40;;;;;;;17.30;6.00;;;10.00;99.90;;;;;;5070415;28;20189;-66
2022/03/07 06:15:07;;;;;;;13.53;5.70;;;10.10;99.90;;;;;;5066821;28;20194;-65
2022/03/07 06:17:34;;;;;;;11.77;5.40;;;10.20;99.90;;;;;;5070405;28;20190;-65
2022/03/07 06:20:01;;;;;;;11.83;4.47;;;10.40;99.90;;;;;;5069431;28;20189;-65
2022/03/07 06:22:27;;;;;;;9.03;4.60;;;10.50;99.90;;;;;;5052137;28;20195;-65
2022/03/07 06:24:53;;;;;;;16.20;5.47;;;10.70;99.90;;;;;;5069271;28;20758;-66
2022/03/07 06:27:22;;;;;;;16.80;5.10;;;10.80;99.90;;;;;;5067466;28;20190;-65
2022/03/07 06:29:49;;;;;;;14.10;4.73;;;10.90;99.90;;;;;;5084420;28;20616;-66
2022/03/07 06:32:15;;;;;;;21.23;5.30;;;11.00;99.90;;;;;;5069982;28;20195;-65
2022/03/07 06:34:41;;;;;;;12.63;4.57;;;11.00;99.90;;;;;;5063924;28;20203;-65
2022/03/07 06:37:07;;;;;;;14.23;4.80;;;11.00;99.90;;;;;;5068591;28;20182;-65
2022/03/07 06:39:34;;;;;;;13.73;4.70;;;11.10;99.90;;;;;;5070064;28;20220;-66
2022/03/07 06:42:00;;;;;;;16.57;4.73;;;11.20;99.90;;;;;;5078027;28;20198;-65
2022/03/07 06:44:27;;;;;;;15.67;4.40;;;11.20;99.90;;;;;;5068756;28;20585;-66
2022/03/07 06:46:56;;;;;;;14.50;4.60;;;11.30;99.90;;;;;;5069181;28;20274;-65
2022/03/07 06:49:22;;;;;;;9.80;4.43;;;11.30;99.90;;;;;;5069044;28;20222;-65
2022/03/07 06:51:49;;;;;;;17.37;5.00;;;11.30;99.90;;;;;;5070964;28;20197;-66
2022/03/07 06:54:15;;;;;;;17.70;4.97;;;11.30;99.90;;;;;;5069719;28;20199;-66
2022/03/07 06:56:42;;;;;;;20.20;4.67;;;11.40;99.90;;;;;;5057505;28;21035;-66
2022/03/07 06:59:08;;;;;;;16.80;4.37;;;11.40;99.90;;;;;;5069847;28;20187;-65
2022/03/07 07:01:34;;;;;;;19.10;4.90;;;11.40;99.90;;;;;;5069343;28;20195;-66
2022/03/07 07:04:01;;;;;;;9.93;4.23;;;11.40;99.90;;;;;;5066342;28;20187;-65
2022/03/07 07:06:27;;;;;;;11.00;4.60;;;11.50;99.90;;;;;;5067974;28;20204;-65
2022/03/07 07:08:53;;;;;;;20.00;5.17;;;11.60;99.90;;;;;;5070085;28;20658;-66
2022/03/07 07:11:20;;;;;;;20.33;4.83;;;11.70;99.90;;;;;;5070190;28;20205;-66
2022/03/07 07:13:46;;;;;;;18.73;4.77;;;11.70;99.90;;;;;;5069146;28;20203;-66
2022/03/07 07:16:13;;;;;;;13.10;4.40;;;11.70;99.90;;;;;;5071935;28;20746;-65
2022/03/07 07:18:40;;;;;;;14.47;4.67;;;11.80;99.90;;;;;;5068248;28;20552;-66
2022/03/07 07:21:06;;;;;;;19.33;5.10;;;11.80;99.90;;;;;;5068159;28;20182;-66
2022/03/07 07:23:33;;;;;;;11.43;4.10;;;11.80;99.90;;;;;;5067811;28;20594;-66
2022/03/07 07:25:59;;;;;;;16.33;4.83;;;11.90;99.90;;;;;;5067460;28;20230;-66
2022/03/07 07:28:25;;;;;;;15.03;4.43;;;12.00;99.90;;;;;;5049894;28;20852;-66
2022/03/07 07:30:52;;;;;;;13.17;4.50;;;12.10;99.90;;;;;;5068460;28;20563;-66
2022/03/07 07:33:18;;;;;;;12.53;4.63;;;12.20;99.90;;;;;;5068982;28;20183;-66
2022/03/07 07:35:44;;;;;;;13.73;4.43;;;12.20;99.90;;;;;;5049792;28;20198;-65
2022/03/07 07:38:11;;;;;;;12.77;4.20;;;12.30;99.90;;;;;;5066227;28;20187;-66
2022/03/07 07:40:37;;;;;;;11.50;4.30;;;12.30;99.90;;;;;;5074071;28;20284;-65
2022/03/07 07:43:03;;;;;;;13.80;4.33;;;12.50;99.90;;;;;;5072497;28;20191;-65
2022/03/07 07:45:30;;;;;;;15.80;4.47;;;12.60;99.90;;;;;;5067445;28;20274;-65
2022/03/07 07:47:58;;;;;;;17.70;4.50;;;12.70;99.90;;;;;;5071281;28;20575;-65
2022/03/07 07:50:24;;;;;;;9.70;3.37;;;12.80;99.90;;;;;;5066917;28;20292;-66
2022/03/07 07:52:51;;;;;;;13.00;4.23;;;12.90;99.90;;;;;;5068130;28;20246;-65
2022/03/07 07:55:17;;;;;;;16.83;4.13;;;12.90;99.90;;;;;;5067041;28;20872;-66
2022/03/07 07:57:43;;;;;;;15.13;4.80;;;12.90;99.90;;;;;;5067222;28;20198;-65
2022/03/07 08:00:15;;;;;;;16.10;4.63;;;12.90;99.90;;;;;;5070204;28;20190;-66
2022/03/07 08:02:42;;;;;;;12.57;4.07;;;12.90;99.90;;;;;;5066351;28;20603;-65
2022/03/07 08:05:09;;;;;;;16.07;5.07;;;12.90;99.90;;;;;;5068111;28;20198;-65
2022/03/07 08:07:35;;;;;;;14.93;4.40;;;12.90;99.90;;;;;;5048644;28;20667;-65
2022/03/07 08:10:02;;;;;;;10.97;4.37;;;12.90;99.90;;;;;;5065308;28;20207;-65
2022/03/07 08:12:29;;;;;;;13.20;4.60;;;12.90;99.90;;;;;;5067770;28;20190;-66
2022/03/07 08:14:55;;;;;;;18.93;4.87;;;13.00;99.90;;;;;;5063279;28;20198;-66
2022/03/07 08:17:22;;;;;;;13.87;4.60;;;13.00;99.90;;;;;;5061176;28;20193;-65
2022/03/07 08:19:49;;;;;;;19.37;4.57;;;13.10;99.90;;;;;;5065287;28;20282;-65
2022/03/07 08:22:16;;;;;;;13.40;4.17;;;13.10;99.90;;;;;;5066048;28;20194;-66
2022/03/07 08:24:43;;;;;;;21.10;5.10;;;13.20;99.90;;;;;;5065107;28;20215;-66
2022/03/07 08:27:09;;;;;;;24.43;5.43;;;13.10;99.90;;;;;;5066629;28;20198;-66
2022/03/07 08:29:36;;;;;;;16.50;4.40;;;13.10;99.90;;;;;;5067902;28;20218;-66
2022/03/07 08:32:02;;;;;;;12.80;4.00;;;13.20;99.90;;;;;;5073590;28;20194;-65
2022/03/07 08:34:29;;;;;;;19.17;5.07;;;13.30;99.90;;;;;;5072649;28;20198;-66
2022/03/07 08:36:55;;;;;;;12.63;3.90;;;13.30;99.90;;;;;;5068436;28;20199;-66
2022/03/07 08:39:22;;;;;;;14.73;4.47;;;13.40;99.90;;;;;;5068998;28;20197;-66
2022/03/07 08:41:48;;;;;;;14.43;4.23;;;13.40;99.90;;;;;;5083294;28;20283;-66
2022/03/07 08:44:15;;;;;;;12.90;3.67;;;13.50;99.90;;;;;;5068083;28;20299;-67
2022/03/07 08:46:44;;;;;;;23.47;5.03;;;13.40;99.90;;;;;;5079352;28;20740;-66
2022/03/07 08:49:10;;;;;;;12.63;4.27;;;13.50;99.90;;;;;;5067497;28;20540;-65
2022/03/07 08:51:37;;;;;;;16.40;5.10;;;13.50;99.90;;;;;;5072185;28;20187;-66
2022/03/07 08:54:03;;;;;;;13.67;3.83;;;13.60;99.90;;;;;;5071161;28;20187;-66
2022/03/07 08:56:30;;;;;;;9.80;3.37;;;13.60;99.90;;;;;;5069390;28;20540;-67
2022/03/07 08:58:56;;;;;;;10.93;3.80;;;13.70;99.90;;;;;;5070926;28;20205;-66
2022/03/07 09:01:22;;;;;;;18.47;4.27;;;13.70;99.90;;;;;;5067397;28;20190;-66
2022/03/07 09:03:49;;;;;;;18.53;4.10;;;13.90;99.90;;;;;;5070751;28;20187;-65
2022/03/07 09:06:15;;;;;;;13.13;3.67;;;14.10;99.90;;;;;;5073733;28;20203;-66
2022/03/07 09:08:42;;;;;;;15.07;3.83;;;14.10;99.90;;;;;;5071746;28;20741;-65
2022/03/07 09:11:08;;;;;;;10.67;3.77;;;14.10;99.90;;;;;;5068631;28;20292;-67
2022/03/07 09:13:34;;;;;;;16.60;3.90;;;14.20;99.90;;;;;;5071647;28;20187;-66
2022/03/07 09:16:01;;;;;;;13.97;4.13;;;14.30;99.90;;;;;;5071435;28;20624;-67
2022/03/07 09:18:27;;;;;;;11.93;3.60;;;14.50;99.90;;;;;;5052081;28;20324;-65
2022/03/07 09:20:54;;;;;;;11.77;3.80;;;14.70;99.90;;;;;;5052109;28;20182;-64
2022/03/07 09:23:21;;;;;;;14.27;3.90;;;14.90;99.90;;;;;;5072516;28;20187;-66
2022/03/07 09:25:47;;;;;;;11.23;3.30;;;14.90;99.90;;;;;;5066356;28;20684;-65
2022/03/07 09:28:13;;;;;;;17.47;4.33;;;15.00;99.90;;;;;;5065169;28;20198;-64
2022/03/07 09:30:40;;;;;;;12.33;4.30;;;15.20;99.90;;;;;;5054606;28;20657;-65
2022/03/07 09:33:07;;;;;;;19.33;4.30;;;15.10;99.90;;;;;;5070736;28;20704;-66
2022/03/07 09:35:34;;;;;;;13.83;4.03;;;15.10;99.90;;;;;;5069086;28;20245;-65
2022/03/07 09:38:00;;;;;;;17.23;3.90;;;15.10;99.90;;;;;;5049878;28;20193;-64
2022/03/07 09:40:27;;;;;;;12.53;3.77;;;15.10;99.90;;;;;;5075450;28;20561;-65
2022/03/07 09:42:53;;;;;;;12.67;3.67;;;15.10;99.90;;;;;;5066884;28;20191;-65
2022/03/07 09:45:20;;;;;;;17.13;4.60;;;15.10;99.90;;;;;;5047617;28;20190;-65
2022/03/07 09:47:49;;;;;;;10.17;3.20;;;15.30;99.90;;;;;;5063709;28;20277;-65
2022/03/07 09:50:15;;;;;;;15.93;4.13;;;15.40;99.90;;;;;;5068255;28;20217;-65
2022/03/07 09:52:45;;;;;;;10.83;3.93;;;15.40;99.90;;;;;;5073786;28;20949;-65
2022/03/07 09:55:17;;;;;;;9.60;3.60;;;15.50;99.90;;;;;;5074366;28;20191;-66
2022/03/07 09:57:46;;;;;;;13.90;3.90;;;15.50;99.90;;;;;;5067819;28;20237;-66
2022/03/07 10:00:14;;;;;;;10.77;3.47;;;15.40;99.90;;;;;;5066337;28;21171;-65
2022/03/07 10:02:51;;;;;;;11.53;3.40;;;15.30;99.90;;;;;;5065415;28;20205;-66
2022/03/07 10:05:17;;;;;;;8.50;3.10;;;15.20;99.90;;;;;;5066377;28;20503;-66
2022/03/07 10:07:45;;;;;;;17.13;3.80;;;15.20;99.90;;;;;;5066958;28;20194;-66
2022/03/07 10:10:13;;;;;;;10.40;3.90;;;15.20;99.90;;;;;;5066851;28;20254;-67
2022/03/07 10:12:51;;;;;;;12.03;5.57;;;15.10;99.90;;;;;;5065062;28;20674;-65
2022/03/07 10:15:21;;;;;;;15.20;4.10;;;15.20;99.90;;;;;;5065749;28;20193;-65
2022/03/07 10:17:53;;;;;;;8.77;4.27;;;15.20;99.90;;;;;;5065088;28;20195;-67
2022/03/07 10:20:21;;;;;;;8.77;3.57;;;15.20;99.90;;;;;;5063914;28;20206;-65
2022/03/07 10:22:55;;;;;;;10.17;3.10;;;15.10;99.90;;;;;;5065093;28;20201;-67
2022/03/07 10:25:31;;;;;;;13.67;3.33;;;15.10;99.90;;;;;;5070709;28;20214;-65
2022/03/07 10:28:02;;;;;;;10.23;3.93;;;15.20;99.90;;;;;;5049730;28;20179;-66
2022/03/07 10:30:32;;;;;;;10.27;4.03;;;15.40;99.90;;;;;;5049355;28;20218;-66
2022/03/07 10:33:03;;;;;;;12.87;3.43;;;15.40;99.90;;;;;;5068539;28;20195;-65
2022/03/07 10:35:48;;;;;;;9.83;3.80;;;15.30;99.90;;;;;;5067137;28;20411;-66
2022/03/07 10:38:20;;;;;;;15.07;3.73;;;15.20;99.90;;;;;;5068834;28;20190;-66
2022/03/07 10:40:53;;;;;;;9.63;3.53;;;15.10;99.90;;;;;;5072160;28;20236;-67
2022/03/07 10:43:21;;;;;;;13.13;4.37;;;15.10;99.90;;;;;;5070039;28;20193;-65
2022/03/07 10:46:02;;;;;;;13.37;3.53;;;15.00;99.90;;;;;;5065801;28;20187;-66
2022/03/07 10:48:42;;;;;;;17.80;7.03;;;15.00;99.90;;;;;;5071025;28;20193;-65
2022/03/07 10:51:17;;;;;;;17.67;11.33;;;15.00;99.90;;;;;;5074847;28;20220;-65
2022/03/07 10:53:45;;;;;;;11.40;3.60;;;14.90;99.90;;;;;;5064537;28;20182;-66
2022/03/07 10:56:16;;;;;;;11.20;4.00;;;14.90;99.90;;;;;;5072679;28;20273;-65
2022/03/07 10:58:55;;;;;;;14.57;3.70;;;14.90;99.90;;;;;;5066579;28;20183;-66
2022/03/07 11:01:33;;;;;;;11.70;3.93;;;14.90;99.90;;;;;;5073148;28;20819;-65
2022/03/07 11:04:01;;;;;;;14.70;6.33;;;14.90;99.90;;;;;;5059829;28;20186;-66
2022/03/07 11:06:29;;;;;;;13.87;4.27;;;14.90;99.90;;;;;;5063814;28;20191;-67
2022/03/07 11:08:56;;;;;;;15.40;7.27;;;14.90;99.90;;;;;;5067891;28;20281;-66
2022/03/07 11:11:22;;;;;;;13.17;5.33;;;14.90;99.90;;;;;;5072409;28;22013;-65
2022/03/07 11:13:54;;;;;;;7.80;3.03;;;14.90;99.90;;;;;;5066531;28;20214;-66
2022/03/07 11:16:22;;;;;;;7.70;3.83;;;14.80;99.90;;;;;;5046903;28;20187;-67
2022/03/07 11:18:55;;;;;;;15.30;4.27;;;14.80;99.90;;;;;;5075133;28;20198;-65
2022/03/07 11:21:22;;;;;;;13.07;4.40;;;14.60;99.90;;;;;;5067188;28;20830;-65
2022/03/07 11:23:49;;;;;;;13.23;4.00;;;14.60;99.90;;;;;;5070386;28;20186;-65
2022/03/07 11:26:18;;;;;;;10.30;3.97;;;14.50;99.90;;;;;;5070446;28;20201;-64
2022/03/07 11:28:51;;;;;;;13.17;4.33;;;14.40;99.90;;;;;;5072682;28;20273;-66
2022/03/07 11:31:23;;;;;;;12.70;4.63;;;14.40;99.90;;;;;;5067411;28;20221;-65
2022/03/07 11:33:52;;;;;;;11.20;5.27;;;14.30;99.90;;;;;;5064950;28;20191;-65
2022/03/07 11:36:22;;;;;;;13.40;5.60;;;14.30;99.90;;;;;;5060923;28;20217;-66
2022/03/07 11:38:57;;;;;;;9.70;4.37;;;14.30;99.90;;;;;;5071261;28;20352;-66
2022/03/07 11:41:30;;;;;;;12.07;4.97;;;14.20;99.90;;;;;;5058459;28;20210;-66
2022/03/07 11:44:04;;;;;;;18.07;5.60;;;14.20;99.90;;;;;;5060741;28;20187;-65
2022/03/07 11:46:39;;;;;;;13.90;4.40;;;14.10;99.90;;;;;;5061717;28;20190;-66
2022/03/07 11:49:22;;;;;;;14.83;4.83;;;14.10;99.90;;;;;;5061386;28;20205;-66
2022/03/07 11:51:59;;;;;;;13.33;4.60;;;14.10;99.90;;;;;;5060283;28;20179;-67
2022/03/07 11:54:25;;;;;;;12.13;5.43;;;14.00;99.90;;;;;;5061338;28;20189;-65
2022/03/07 11:56:52;;;;;;;19.37;4.70;;;14.00;99.90;;;;;;5046403;28;20197;-67
2022/03/07 11:59:30;;;;;;;12.27;4.27;;;14.00;99.90;;;;;;5046903;28;20179;-66
2022/03/07 12:01:57;;;;;;;21.60;5.10;;;13.90;99.90;;;;;;5069541;28;20209;-67
2022/03/07 12:04:24;;;;;;;13.77;4.53;;;13.90;99.90;;;;;;5063476;28;20930;-65
2022/03/07 12:06:53;;;;;;;13.33;4.23;;;14.00;99.90;;;;;;5066832;28;20214;-67
2022/03/07 12:09:35;;;;;;;12.97;4.43;;;13.90;99.90;;;;;;5066864;28;20265;-66
2022/03/07 12:12:07;;;;;;;9.93;4.30;;;13.90;99.90;;;;;;5047133;28;20232;-66
2022/03/07 12:14:40;;;;;;;12.87;4.90;;;14.00;99.90;;;;;;5061260;28;20183;-66
2022/03/07 12:17:26;;;;;;;13.73;7.80;;;14.10;99.90;;;;;;5062172;28;20520;-67
2022/03/07 12:19:58;;;;;;;984.30;737.87;;;14.10;99.90;;;;;;5063115;28;20191;-66
2022/03/07 12:22:31;;;;;;;195.03;138.27;;;14.30;99.90;;;;;;5063722;28;20190;-66
2022/03/07 12:25:06;;;;;;;40.57;25.10;;;14.50;99.90;;;;;;5070917;28;20280;-67
2022/03/07 12:27:37;;;;;;;12.43;4.63;;;14.60;99.90;;;;;;5062731;28;20195;-66
2022/03/07 12:30:07;;;;;;;24.87;6.97;;;14.70;99.90;;;;;;5061384;28;20242;-67
2022/03/07 12:32:38;;;;;;;9.83;4.10;;;14.90;99.90;;;;;;5080297;28;20304;-65
2022/03/07 12:35:06;;;;;;;16.23;5.27;;;15.00;99.90;;;;;;5065365;28;20273;-66
2022/03/07 12:37:32;;;;;;;14.97;4.10;;;15.10;99.90;;;;;;5063345;28;20194;-66
2022/03/07 12:40:07;;;;;;;14.10;4.50;;;15.10;99.90;;;;;;5064597;28;20214;-65
2022/03/07 12:42:38;;;;;;;17.17;5.60;;;15.20;99.90;;;;;;5071509;28;21157;-65
2022/03/07 12:45:06;;;;;;;16.60;6.73;;;15.20;99.90;;;;;;5070863;28;20197;-67
2022/03/07 12:47:38;;;;;;;15.43;10.93;;;15.20;99.90;;;;;;5071858;28;20528;-65